createdAt,value
2018-07-24T00:00:28.960Z,20.50
2018-07-24T00:03:10.525Z,20.40
2018-07-24T00:05:52.123Z,20.40
2018-07-24T00:08:33.716Z,20.40
2018-07-24T00:11:16.432Z,20.30
2018-07-24T00:13:57.959Z,20.30
2018-07-24T00:16:39.527Z,20.30
2018-07-24T00:19:21.490Z,20.30
2018-07-24T00:22:03.227Z,20.30
2018-07-24T00:24:44.570Z,20.30
2018-07-24T00:27:27.171Z,20.40
2018-07-24T00:30:08.732Z,20.40
2018-07-24T00:32:51.014Z,20.50
2018-07-24T00:35:37.236Z,20.50
2018-07-24T00:38:19.759Z,20.50
2018-07-24T00:41:02.133Z,20.50
2018-07-24T00:43:43.707Z,20.50
2018-07-24T00:46:25.122Z,20.50
2018-07-24T00:49:06.532Z,20.40
2018-07-24T00:51:48.471Z,20.40
2018-07-24T00:54:30.269Z,20.50
2018-07-24T00:57:11.577Z,20.40
2018-07-24T00:59:53.787Z,20.30
2018-07-24T01:02:35.314Z,20.20
2018-07-24T01:05:17.555Z,20.20
2018-07-24T01:07:59.082Z,20.20
2018-07-24T01:10:40.703Z,20.10
2018-07-24T01:13:24.087Z,20.10
2018-07-24T01:16:05.730Z,20.00
2018-07-24T01:18:47.263Z,20.00
2018-07-24T01:21:28.897Z,19.90
2018-07-24T01:24:10.491Z,19.80
2018-07-24T01:26:53.162Z,19.70
2018-07-24T01:29:36.486Z,19.70
2018-07-24T01:32:18.120Z,19.60
2018-07-24T01:34:59.524Z,19.60
2018-07-24T01:37:41.308Z,19.40
2018-07-24T01:40:24.219Z,19.40
2018-07-24T01:43:05.754Z,19.40
2018-07-24T01:45:47.016Z,19.40
2018-07-24T01:48:28.470Z,19.40
2018-07-24T01:51:10.080Z,19.40
2018-07-24T01:53:52.731Z,19.40
2018-07-24T01:56:34.304Z,19.50
2018-07-24T02:02:31.900Z,19.40
2018-07-24T02:05:13.663Z,19.40
2018-07-24T02:07:55.665Z,19.40
2018-07-24T02:10:37.187Z,19.40
2018-07-24T02:13:20.116Z,19.50
2018-07-24T02:16:01.424Z,19.60
2018-07-24T02:18:43.056Z,19.60
2018-07-24T02:21:25.076Z,19.70
2018-07-24T02:24:06.710Z,19.70
2018-07-24T02:26:48.240Z,19.70
2018-07-24T02:29:29.675Z,19.60
2018-07-24T02:32:12.053Z,19.60
2018-07-24T02:34:57.564Z,19.50
2018-07-24T02:37:39.024Z,19.40
2018-07-24T02:40:23.290Z,19.50
2018-07-24T02:43:05.596Z,19.40
2018-07-24T02:45:47.404Z,19.40
2018-07-24T02:48:29.363Z,19.30
2018-07-24T02:51:11.006Z,19.20
2018-07-24T02:53:53.099Z,19.10
2018-07-24T02:56:34.548Z,19.10
2018-07-24T02:59:16.081Z,19.00
2018-07-24T03:01:58.460Z,19.00
2018-07-24T03:04:43.755Z,18.90
2018-07-24T03:07:25.976Z,18.80
2018-07-24T03:10:07.740Z,18.70
2018-07-24T03:12:50.207Z,18.40
2018-07-24T03:15:37.211Z,18.30
2018-07-24T03:18:19.020Z,18.30
2018-07-24T03:21:00.444Z,18.40
2018-07-24T03:23:42.299Z,18.40
2018-07-24T03:26:27.442Z,18.40
2018-07-24T03:29:08.904Z,18.30
2018-07-24T03:31:51.865Z,18.20
2018-07-24T03:34:33.849Z,18.20
2018-07-24T03:37:16.148Z,18.20
2018-07-24T03:39:59.917Z,18.30
2018-07-24T03:42:41.604Z,18.30
2018-07-24T03:45:24.009Z,18.30
2018-07-24T03:48:05.295Z,18.30
2018-07-24T03:50:47.097Z,18.40
2018-07-24T03:53:29.058Z,18.40
2018-07-24T03:56:10.682Z,18.40
2018-07-24T03:58:53.964Z,18.40
2018-07-24T04:01:51.917Z,18.50
2018-07-24T04:04:33.966Z,18.40
2018-07-24T04:07:16.092Z,18.40
2018-07-24T04:09:57.549Z,18.30
2018-07-24T04:12:39.327Z,18.30
2018-07-24T04:15:21.769Z,18.30
2018-07-24T04:18:03.211Z,18.40
2018-07-24T04:20:45.033Z,18.40
2018-07-24T04:23:26.550Z,18.40
2018-07-24T04:26:08.028Z,18.40
2018-07-24T04:28:50.612Z,18.50
2018-07-24T04:31:33.548Z,18.60
2018-07-24T04:34:15.247Z,18.60
2018-07-24T04:36:57.457Z,18.60
2018-07-24T04:39:38.936Z,18.60
2018-07-24T04:42:21.208Z,18.60
2018-07-24T04:45:03.011Z,18.60
2018-07-24T04:47:44.862Z,18.80
2018-07-24T04:50:26.636Z,18.90
2018-07-24T04:53:08.461Z,19.00
2018-07-24T04:55:50.131Z,19.10
2018-07-24T04:58:31.575Z,19.20
2018-07-24T05:01:13.219Z,19.40
2018-07-24T05:03:55.244Z,19.50
2018-07-24T05:06:36.728Z,19.60
2018-07-24T05:09:18.239Z,19.70
2018-07-24T05:12:00.964Z,19.80
2018-07-24T05:14:42.423Z,19.90
2018-07-24T05:17:24.590Z,20.00
2018-07-24T05:20:06.059Z,20.00
2018-07-24T05:22:47.411Z,20.10
2018-07-24T05:25:30.619Z,20.20
2018-07-24T05:28:15.735Z,20.20
2018-07-24T05:30:59.447Z,20.20
2018-07-24T05:33:41.799Z,20.20
2018-07-24T05:36:23.872Z,20.30
2018-07-24T05:39:09.669Z,20.40
2018-07-24T05:41:51.790Z,20.40
2018-07-24T05:44:33.283Z,20.50
2018-07-24T05:47:14.865Z,20.50
2018-07-24T05:49:56.407Z,20.50
2018-07-24T05:52:37.973Z,20.60
2018-07-24T05:55:20.235Z,20.60
2018-07-24T05:58:01.788Z,20.70
2018-07-24T06:00:43.377Z,20.70
2018-07-24T06:03:25.814Z,20.80
2018-07-24T06:06:07.257Z,20.90
2018-07-24T06:08:48.560Z,20.90
2018-07-24T06:11:33.608Z,21.00
2018-07-24T06:14:15.216Z,21.00
2018-07-24T06:16:56.799Z,21.10
2018-07-24T06:19:38.232Z,21.10
2018-07-24T06:22:20.405Z,21.20
2018-07-24T06:25:02.748Z,21.30
2018-07-24T06:27:44.572Z,21.30
2018-07-24T06:30:26.025Z,21.30
2018-07-24T06:33:07.664Z,21.40
2018-07-24T06:35:50.248Z,21.50
2018-07-24T06:38:33.100Z,21.60
2018-07-24T06:41:14.579Z,21.60
2018-07-24T06:43:56.800Z,21.70
2018-07-24T06:46:38.259Z,21.80
2018-07-24T06:49:20.253Z,21.90
2018-07-24T06:52:01.866Z,22.00
2018-07-24T06:54:43.564Z,22.10
2018-07-24T06:57:25.781Z,22.20
2018-07-24T07:00:07.307Z,22.20
2018-07-24T07:02:48.667Z,22.30
2018-07-24T07:05:30.216Z,22.40
2018-07-24T07:08:11.690Z,22.50
2018-07-24T07:10:54.476Z,22.60
2018-07-24T07:13:36.536Z,22.80
2018-07-24T07:16:17.989Z,23.00
2018-07-24T07:19:01.679Z,23.20
2018-07-24T07:21:43.155Z,23.50
2018-07-24T07:24:25.236Z,23.70
2018-07-24T07:27:06.669Z,24.00
2018-07-24T07:29:48.250Z,24.40
2018-07-24T07:32:29.783Z,24.80
2018-07-24T07:35:11.387Z,25.20
2018-07-24T07:37:54.141Z,25.40
2018-07-24T07:40:36.384Z,25.70
2018-07-24T07:43:18.847Z,25.90
2018-07-24T07:46:00.266Z,26.20
2018-07-24T07:48:41.842Z,26.60
2018-07-24T07:51:24.239Z,26.90
2018-07-24T07:54:05.832Z,27.00
2018-07-24T07:56:47.412Z,27.00
2018-07-24T07:59:29.900Z,27.10
2018-07-24T08:02:11.562Z,27.20
2018-07-24T08:04:54.056Z,27.30
2018-07-24T08:07:37.900Z,27.40
2018-07-24T08:10:20.300Z,27.70
2018-07-24T08:13:02.760Z,27.80
2018-07-24T08:15:44.433Z,27.90
2018-07-24T08:18:26.064Z,27.90
2018-07-24T08:21:07.560Z,28.00
2018-07-24T08:23:51.452Z,28.00
2018-07-24T08:26:32.896Z,28.10
2018-07-24T08:29:14.643Z,28.20
2018-07-24T08:31:56.316Z,28.40
2018-07-24T08:34:37.864Z,28.20
2018-07-24T08:37:20.292Z,28.20
2018-07-24T08:40:02.769Z,28.30
2018-07-24T08:42:45.207Z,28.40
2018-07-24T08:45:26.408Z,28.40
2018-07-24T08:48:12.772Z,28.40
2018-07-24T08:50:55.639Z,28.30
2018-07-24T08:53:37.488Z,28.50
2018-07-24T08:56:18.853Z,28.60
2018-07-24T08:59:00.504Z,28.70
2018-07-24T09:01:42.141Z,28.80
2018-07-24T09:04:24.525Z,28.70
2018-07-24T09:07:05.992Z,28.70
2018-07-24T09:09:47.616Z,28.50
2018-07-24T09:12:30.307Z,28.30
2018-07-24T09:15:12.001Z,28.30
2018-07-24T09:18:04.520Z,28.30
2018-07-24T09:20:46.067Z,28.30
2018-07-24T09:23:27.639Z,28.30
2018-07-24T09:26:09.069Z,28.20
2018-07-24T09:28:53.089Z,28.30
2018-07-24T09:31:34.684Z,28.50
2018-07-24T09:34:16.768Z,28.30
2018-07-24T09:36:58.934Z,27.90
2018-07-24T09:39:40.899Z,27.90
2018-07-24T09:42:26.096Z,27.80
2018-07-24T09:45:08.358Z,27.80
2018-07-24T09:47:55.309Z,27.90
2018-07-24T09:50:36.886Z,27.70
2018-07-24T09:53:18.256Z,27.60
2018-07-24T09:55:59.833Z,27.80
2018-07-24T09:58:41.447Z,27.90
2018-07-24T10:01:30.676Z,27.70
2018-07-24T10:04:13.541Z,27.50
2018-07-24T10:06:57.778Z,27.60
2018-07-24T10:09:39.396Z,27.70
2018-07-24T10:12:23.081Z,27.90
2018-07-24T10:15:04.784Z,28.10
2018-07-24T10:17:46.231Z,28.20
2018-07-24T10:20:28.329Z,27.60
2018-07-24T10:23:09.732Z,27.60
2018-07-24T10:25:54.623Z,28.00
2018-07-24T10:28:36.359Z,28.00
2018-07-24T10:31:17.941Z,27.70
2018-07-24T10:34:00.005Z,27.60
2018-07-24T10:36:41.640Z,27.40
2018-07-24T10:39:25.160Z,27.30
2018-07-24T10:42:06.836Z,27.50
2018-07-24T10:44:48.464Z,27.40
2018-07-24T10:47:29.880Z,27.40
2018-07-24T10:50:11.240Z,27.20
2018-07-24T10:52:55.064Z,27.30
2018-07-24T10:55:36.728Z,27.30
2018-07-24T10:58:18.227Z,27.40
2018-07-24T11:00:59.998Z,27.70
2018-07-24T11:03:41.412Z,27.50
2018-07-24T11:06:26.163Z,27.60
2018-07-24T11:09:09.375Z,27.80
2018-07-24T11:11:52.860Z,27.80
2018-07-24T11:14:34.528Z,27.90
2018-07-24T11:17:16.021Z,28.00
2018-07-24T11:19:57.732Z,27.80
2018-07-24T11:22:39.689Z,27.40
2018-07-24T11:25:22.884Z,27.30
2018-07-24T11:28:04.272Z,27.40
2018-07-24T11:30:46.073Z,27.40
2018-07-24T11:33:28.165Z,27.30
2018-07-24T11:36:09.626Z,27.00
2018-07-24T11:38:53.884Z,27.10
2018-07-24T11:41:35.766Z,27.50
2018-07-24T11:44:17.388Z,27.90
2018-07-24T11:47:00.166Z,27.80
2018-07-24T11:49:41.800Z,27.60
2018-07-24T11:52:24.507Z,27.30
2018-07-24T11:55:06.373Z,27.00
2018-07-24T11:57:48.285Z,26.80
2018-07-24T12:00:30.520Z,26.60
2018-07-24T12:03:12.115Z,26.70
2018-07-24T12:05:54.792Z,27.00
2018-07-24T12:08:36.939Z,27.10
2018-07-24T12:11:18.619Z,27.30
2018-07-24T12:14:01.453Z,27.50
2018-07-24T12:16:46.930Z,27.50
2018-07-24T12:19:28.552Z,27.60
2018-07-24T12:22:10.608Z,27.80
2018-07-24T12:24:56.977Z,27.60
2018-07-24T12:27:38.819Z,27.50
2018-07-24T12:30:21.095Z,27.50
2018-07-24T12:33:02.561Z,27.40
2018-07-24T12:35:44.108Z,27.40
2018-07-24T12:38:25.610Z,27.40
2018-07-24T12:41:08.634Z,27.60
2018-07-24T12:43:51.400Z,27.80
2018-07-24T12:46:33.943Z,27.90
2018-07-24T12:49:16.787Z,28.00
2018-07-24T12:51:59.350Z,27.80
2018-07-24T12:54:40.991Z,27.60
2018-07-24T12:57:22.875Z,27.40
2018-07-24T13:00:11.526Z,27.20
2018-07-24T13:02:54.450Z,27.10
2018-07-24T13:05:37.744Z,27.10
2018-07-24T13:08:20.206Z,27.40
2018-07-24T13:11:01.679Z,27.60
2018-07-24T13:13:43.554Z,27.80
2018-07-24T13:16:25.241Z,27.60
2018-07-24T13:19:11.096Z,27.40
2018-07-24T13:21:55.064Z,27.20
2018-07-24T13:24:36.468Z,27.40
2018-07-24T13:27:18.180Z,27.40
2018-07-24T13:29:59.624Z,27.30
2018-07-24T13:32:43.235Z,27.10
2018-07-24T13:35:26.646Z,26.90
2018-07-24T13:38:09.028Z,26.80
2018-07-24T13:40:51.940Z,26.70
2018-07-24T13:43:33.372Z,26.60
2018-07-24T13:46:15.798Z,26.60
2018-07-24T13:48:57.621Z,26.60
2018-07-24T13:51:43.012Z,26.90
2018-07-24T13:54:28.157Z,27.10
2018-07-24T13:57:10.403Z,27.20
2018-07-24T13:59:53.812Z,27.10
2018-07-24T14:02:35.650Z,27.00
2018-07-24T14:05:17.320Z,26.90
2018-07-24T14:08:01.696Z,26.80
2018-07-24T14:10:43.744Z,26.90
2018-07-24T14:13:27.836Z,27.10
2018-07-24T14:16:11.781Z,27.30
2018-07-24T14:18:54.365Z,27.40
2018-07-24T14:21:36.102Z,27.30
2018-07-24T14:24:24.939Z,27.10
2018-07-24T14:27:08.860Z,26.90
2018-07-24T14:29:50.400Z,26.80
2018-07-24T14:32:32.544Z,26.80
2018-07-24T14:35:14.021Z,26.70
2018-07-24T14:37:57.880Z,26.60
2018-07-24T14:40:40.108Z,26.60
2018-07-24T14:43:23.585Z,26.70
2018-07-24T14:46:06.813Z,26.70
2018-07-24T14:48:48.297Z,26.90
2018-07-24T14:51:29.737Z,26.90
2018-07-24T14:54:14.794Z,26.90
2018-07-24T14:57:02.856Z,27.00
2018-07-24T14:59:44.319Z,27.00
2018-07-24T15:02:27.881Z,27.00
2018-07-24T15:05:09.725Z,26.90
2018-07-24T15:07:51.262Z,26.80
2018-07-24T15:10:33.696Z,26.90
2018-07-24T15:13:15.229Z,26.90
2018-07-24T15:15:57.227Z,26.80
2018-07-24T15:18:38.689Z,26.80
2018-07-24T15:21:20.233Z,26.70
2018-07-24T15:24:02.505Z,26.70
2018-07-24T15:26:44.076Z,26.80
2018-07-24T15:29:29.158Z,26.90
2018-07-24T15:32:19.279Z,27.00
2018-07-24T15:35:01.063Z,27.20
2018-07-24T15:37:42.328Z,27.10
2018-07-24T15:40:24.424Z,26.90
2018-07-24T15:43:07.079Z,26.80
2018-07-24T15:45:48.616Z,26.70
2018-07-24T15:48:31.847Z,26.60
2018-07-24T15:51:13.320Z,26.60
2018-07-24T15:53:56.596Z,26.60
2018-07-24T15:56:38.269Z,26.80
2018-07-24T15:59:20.057Z,26.90
2018-07-24T16:02:03.176Z,27.00
2018-07-24T16:04:44.685Z,26.80
2018-07-24T16:07:26.564Z,26.80
2018-07-24T16:10:08.184Z,26.70
2018-07-24T16:12:50.396Z,26.80
2018-07-24T16:15:32.232Z,26.70
2018-07-24T16:18:13.682Z,26.60
2018-07-24T16:20:55.152Z,26.50
2018-07-24T16:23:36.915Z,26.50
2018-07-24T16:26:18.884Z,26.50
2018-07-24T16:29:02.962Z,26.50
2018-07-24T16:31:49.733Z,26.50
2018-07-24T16:34:32.935Z,26.50
2018-07-24T16:37:14.416Z,26.50
2018-07-24T16:39:56.708Z,26.50
2018-07-24T16:42:38.196Z,26.50
2018-07-24T16:45:19.687Z,26.40
2018-07-24T16:48:01.850Z,26.40
2018-07-24T16:50:43.587Z,26.40
2018-07-24T16:53:27.720Z,26.40
2018-07-24T16:56:09.645Z,26.30
2018-07-24T16:58:52.306Z,26.30
2018-07-24T17:01:35.768Z,26.30
2018-07-24T17:04:18.188Z,26.30
2018-07-24T17:07:00.727Z,26.20
2018-07-24T17:09:42.713Z,26.20
2018-07-24T17:12:24.788Z,26.20
2018-07-24T17:15:07.685Z,26.10
2018-07-24T17:17:50.144Z,26.10
2018-07-24T17:20:32.559Z,26.00
2018-07-24T17:23:14.710Z,26.00
2018-07-24T17:25:56.294Z,26.00
2018-07-24T17:28:39.783Z,25.90
2018-07-24T17:31:21.176Z,25.90
2018-07-24T17:34:04.781Z,25.90
2018-07-24T17:36:46.428Z,25.80
2018-07-24T17:39:29.442Z,25.80
2018-07-24T17:42:11.553Z,25.80
2018-07-24T17:44:52.893Z,25.70
2018-07-24T17:47:34.912Z,25.70
2018-07-24T17:50:16.947Z,25.70
2018-07-24T17:53:03.148Z,25.60
2018-07-24T17:55:46.570Z,25.60
2018-07-24T17:58:32.080Z,25.60
2018-07-24T18:01:18.808Z,25.60
2018-07-24T18:04:01.798Z,25.60
2018-07-24T18:06:44.147Z,25.50
2018-07-24T18:09:31.881Z,25.50
2018-07-24T18:12:15.257Z,25.40
2018-07-24T18:14:57.584Z,25.40
2018-07-24T18:17:39.759Z,25.40
2018-07-24T18:20:21.171Z,25.40
2018-07-24T18:23:03.738Z,25.30
2018-07-24T18:25:46.260Z,25.30
2018-07-24T18:28:28.104Z,25.20
2018-07-24T18:31:10.455Z,25.20
2018-07-24T18:33:52.485Z,25.10
2018-07-24T18:36:35.938Z,25.00
2018-07-24T18:39:18.480Z,25.00
2018-07-24T18:42:00.998Z,24.90
2018-07-24T18:44:43.577Z,24.90
2018-07-24T18:47:26.050Z,24.90
2018-07-24T18:50:07.671Z,24.80
2018-07-24T18:52:49.336Z,24.80
2018-07-24T18:55:33.482Z,24.70
2018-07-24T18:58:17.340Z,24.60
2018-07-24T19:00:58.942Z,24.60
2018-07-24T19:03:41.320Z,24.60
2018-07-24T19:06:24.338Z,24.50
2018-07-24T19:09:09.422Z,24.40
2018-07-24T19:11:50.895Z,24.40
2018-07-24T19:14:34.076Z,24.40
2018-07-24T19:17:15.629Z,24.40
2018-07-24T19:19:59.365Z,24.40
2018-07-24T19:22:41.852Z,24.40
2018-07-24T19:25:23.568Z,24.40
2018-07-24T19:28:05.998Z,24.40
2018-07-24T19:30:47.647Z,24.40
2018-07-24T19:33:31.799Z,24.40
2018-07-24T19:36:13.827Z,24.30
2018-07-24T19:38:55.406Z,24.30
2018-07-24T19:41:39.171Z,24.20
2018-07-24T19:44:20.662Z,24.10
2018-07-24T19:47:03.045Z,24.10
2018-07-24T19:49:45.391Z,24.00
2018-07-24T19:52:26.948Z,24.00
2018-07-24T19:55:11.064Z,23.90
2018-07-24T19:57:59.957Z,23.90
2018-07-24T20:00:45.143Z,23.90
2018-07-24T20:03:26.483Z,23.80
2018-07-24T20:06:21.968Z,23.80
2018-07-24T20:09:11.140Z,23.80
2018-07-24T20:11:54.082Z,23.80
2018-07-24T20:14:35.611Z,23.80
2018-07-24T20:17:17.092Z,23.70
2018-07-24T20:19:58.956Z,23.70
2018-07-24T20:22:42.561Z,23.70
2018-07-24T20:25:24.534Z,23.60
2018-07-24T20:28:06.184Z,23.60
2018-07-24T20:30:47.885Z,23.60
2018-07-24T20:33:30.021Z,23.50
2018-07-24T20:36:16.536Z,23.50
2018-07-24T20:38:58.228Z,23.50
2018-07-24T20:41:40.091Z,23.40
2018-07-24T20:44:23.424Z,23.40
2018-07-24T20:47:05.695Z,23.40
2018-07-24T20:49:47.956Z,23.40
2018-07-24T20:52:30.148Z,23.40
2018-07-24T20:55:12.751Z,23.40
2018-07-24T20:57:54.665Z,23.40
2018-07-24T21:00:37.460Z,23.30
2018-07-24T21:03:19.099Z,23.30
2018-07-24T21:06:00.676Z,23.30
2018-07-24T21:08:42.455Z,23.30
2018-07-24T21:11:26.092Z,23.30
2018-07-24T21:14:08.916Z,23.30
2018-07-24T21:16:52.788Z,23.20
2018-07-24T21:19:34.279Z,23.20
2018-07-24T21:22:17.624Z,23.20
2018-07-24T21:24:59.117Z,23.20
2018-07-24T21:27:40.761Z,23.20
2018-07-24T21:30:27.304Z,23.20
2018-07-24T21:33:09.024Z,23.20
2018-07-24T21:35:50.900Z,23.10
2018-07-24T21:38:32.468Z,23.00
2018-07-24T21:41:13.996Z,22.90
2018-07-24T21:43:56.187Z,22.90
2018-07-24T21:46:37.849Z,22.80
2018-07-24T21:49:20.496Z,22.80
2018-07-24T21:52:02.672Z,22.70
2018-07-24T21:54:44.326Z,22.70
2018-07-24T21:57:28.041Z,22.70
2018-07-24T22:00:12.018Z,22.70
2018-07-24T22:02:53.664Z,22.70
2018-07-24T22:05:35.377Z,22.70
2018-07-24T22:08:18.152Z,22.60
2018-07-24T22:11:00.435Z,22.60
2018-07-24T22:13:44.141Z,22.60
2018-07-24T22:16:25.926Z,22.40
2018-07-24T22:19:07.396Z,22.40
2018-07-24T22:21:51.095Z,22.30
2018-07-24T22:24:32.721Z,22.30
2018-07-24T22:27:14.216Z,22.20
2018-07-24T22:29:56.988Z,22.10
2018-07-24T22:32:38.370Z,22.10
2018-07-24T22:35:22.025Z,22.00
2018-07-24T22:38:03.777Z,21.90
2018-07-24T22:40:45.303Z,21.80
2018-07-24T22:43:27.892Z,21.80
2018-07-24T22:46:09.633Z,21.70
2018-07-24T22:48:52.805Z,21.70
2018-07-24T22:51:34.391Z,21.70
2018-07-24T22:54:16.475Z,21.60
2018-07-24T22:56:58.496Z,21.60
2018-07-24T22:59:40.211Z,21.50
2018-07-24T23:02:22.899Z,21.40
2018-07-24T23:05:05.073Z,21.40
2018-07-24T23:07:46.719Z,21.30
2018-07-24T23:10:33.570Z,21.30
2018-07-24T23:13:15.085Z,21.20
2018-07-24T23:15:57.247Z,21.20
2018-07-24T23:18:38.687Z,21.20
2018-07-24T23:21:21.417Z,21.20
2018-07-24T23:24:02.868Z,21.10
2018-07-24T23:26:44.447Z,21.10
2018-07-24T23:29:26.383Z,21.10
2018-07-24T23:32:07.977Z,21.10
2018-07-24T23:34:49.406Z,21.00
2018-07-24T23:37:31.221Z,21.00
2018-07-24T23:40:12.536Z,21.00
2018-07-24T23:42:55.060Z,20.90
2018-07-24T23:45:36.572Z,20.90
2018-07-24T23:48:18.048Z,20.90
2018-07-24T23:50:59.995Z,20.90
2018-07-24T23:53:41.680Z,20.90
2018-07-24T23:56:25.661Z,20.80
2018-07-24T23:59:07.424Z,20.80
